createdAt,value
2022-08-14T00:00:04.052Z,5.63
2022-08-14T00:02:32.666Z,4.47
2022-08-14T00:05:01.287Z,4.60
2022-08-14T00:07:31.183Z,4.40
2022-08-14T00:10:49.833Z,5.23
2022-08-14T00:12:56.974Z,4.67
2022-08-14T00:15:29.970Z,4.13
2022-08-14T00:18:06.945Z,6.13
2022-08-14T00:20:42.908Z,4.83
2022-08-14T00:23:16.650Z,4.43
2022-08-14T00:25:58.844Z,5.93
2022-08-14T00:28:36.066Z,5.37
2022-08-14T00:31:08.078Z,4.80
2022-08-14T00:33:51.157Z,6.07
2022-08-14T00:36:36.912Z,5.43
2022-08-14T00:39:18.026Z,4.90
2022-08-14T00:41:47.729Z,4.60
2022-08-14T00:44:27.567Z,6.73
2022-08-14T00:47:02.582Z,7.70
2022-08-14T00:49:42.655Z,4.00
2022-08-14T00:52:14.174Z,4.73
2022-08-14T00:54:52.898Z,6.57
2022-08-14T00:57:28.554Z,4.80
2022-08-14T00:59:57.507Z,4.50
2022-08-14T01:02:28.360Z,5.23
2022-08-14T01:05:04.953Z,4.80
2022-08-14T01:07:47.196Z,4.80
2022-08-14T01:10:23.479Z,5.07
2022-08-14T01:13:06.271Z,5.10
2022-08-14T01:15:57.903Z,5.00
2022-08-14T01:18:41.592Z,5.57
2022-08-14T01:21:15.097Z,4.83
2022-08-14T01:23:47.922Z,7.03
2022-08-14T01:26:34.519Z,5.80
2022-08-14T01:29:05.768Z,4.77
2022-08-14T01:31:37.278Z,4.80
2022-08-14T01:35:20.559Z,4.90
2022-08-14T01:36:56.195Z,5.83
2022-08-14T01:39:27.770Z,5.37
2022-08-14T01:42:01.308Z,6.17
2022-08-14T01:44:34.072Z,4.57
2022-08-14T01:47:16.455Z,6.23
2022-08-14T01:49:59.903Z,6.63
2022-08-14T01:52:59.144Z,7.67
2022-08-14T01:55:24.538Z,4.57
2022-08-14T01:58:01.678Z,5.50
2022-08-14T02:00:41.542Z,4.53
2022-08-14T02:03:10.054Z,4.87
2022-08-14T02:05:39.077Z,4.70
2022-08-14T02:08:10.207Z,5.30
2022-08-14T02:10:47.295Z,4.70
2022-08-14T02:13:19.008Z,4.40
2022-08-14T02:15:50.180Z,4.77
2022-08-14T02:18:19.270Z,4.27
2022-08-14T02:20:48.818Z,6.20
2022-08-14T02:23:23.857Z,4.23
2022-08-14T02:26:18.214Z,5.40
2022-08-14T02:29:00.215Z,6.23
2022-08-14T02:31:42.149Z,4.50
2022-08-14T02:34:14.528Z,5.73
2022-08-14T02:37:03.421Z,4.50
2022-08-14T02:39:37.825Z,4.53
2022-08-14T02:42:12.753Z,5.07
2022-08-14T02:44:49.237Z,5.00
2022-08-14T02:47:20.873Z,4.87
2022-08-14T02:49:54.886Z,4.50
2022-08-14T02:52:57.386Z,5.67
2022-08-14T02:55:20.438Z,4.60
2022-08-14T02:57:58.287Z,4.60
2022-08-14T03:00:35.232Z,4.47
2022-08-14T03:03:07.728Z,4.90
2022-08-14T03:05:41.758Z,5.10
2022-08-14T03:08:16.132Z,6.43
2022-08-14T03:10:48.598Z,6.50
2022-08-14T03:13:21.530Z,5.97
2022-08-14T03:15:55.720Z,6.33
2022-08-14T03:18:31.495Z,4.77
2022-08-14T03:21:04.252Z,4.43
2022-08-14T03:23:37.693Z,4.80
2022-08-14T03:26:08.476Z,4.33
2022-08-14T03:28:40.482Z,5.90
2022-08-14T03:31:13.183Z,5.27
2022-08-14T03:33:43.200Z,5.23
2022-08-14T03:37:28.907Z,5.77
2022-08-14T03:39:11.790Z,5.10
2022-08-14T03:41:47.633Z,6.57
2022-08-14T03:45:25.532Z,5.00
2022-08-14T03:47:06.907Z,5.63
2022-08-14T03:49:42.170Z,6.27
2022-08-14T03:52:18.174Z,7.47
2022-08-14T03:55:03.366Z,4.67
2022-08-14T03:57:32.449Z,5.90
2022-08-14T04:00:04.825Z,5.90
2022-08-14T04:02:37.377Z,5.57
2022-08-14T04:05:11.584Z,6.40
2022-08-14T04:08:00.192Z,4.80
2022-08-14T04:10:31.886Z,5.30
2022-08-14T04:13:03.489Z,6.93
2022-08-14T04:15:56.481Z,5.87
2022-08-14T04:18:23.301Z,5.87
2022-08-14T04:20:55.287Z,4.90
2022-08-14T04:23:32.628Z,5.00
2022-08-14T04:26:08.263Z,4.60
2022-08-14T04:29:08.113Z,4.80
2022-08-14T04:33:02.298Z,4.37
2022-08-14T04:34:17.374Z,4.67
2022-08-14T04:37:10.654Z,5.10
2022-08-14T04:39:57.717Z,4.60
2022-08-14T04:42:46.965Z,4.10
2022-08-14T04:45:21.882Z,4.70
2022-08-14T04:48:09.961Z,3.90
2022-08-14T04:50:44.008Z,4.10
2022-08-14T04:53:15.617Z,4.03
2022-08-14T04:55:49.984Z,4.20
2022-08-14T04:58:32.998Z,5.00
2022-08-14T05:01:04.314Z,4.10
2022-08-14T05:03:35.827Z,4.30
2022-08-14T05:06:07.655Z,5.37
2022-08-14T05:08:59.737Z,4.00
2022-08-14T05:11:33.486Z,4.07
2022-08-14T05:14:42.899Z,5.10
2022-08-14T05:16:54.128Z,4.60
2022-08-14T05:19:29.237Z,4.73
2022-08-14T05:22:17.189Z,5.10
2022-08-14T05:24:50.320Z,5.00
2022-08-14T05:27:22.969Z,5.53
2022-08-14T05:29:56.821Z,5.00
2022-08-14T05:32:28.309Z,5.13
2022-08-14T05:35:00.114Z,5.23
2022-08-14T05:37:30.406Z,5.40
2022-08-14T05:40:00.916Z,5.67
2022-08-14T05:42:32.051Z,5.73
2022-08-14T05:45:11.194Z,5.37
2022-08-14T05:47:46.721Z,5.63
2022-08-14T05:50:21.001Z,5.50
2022-08-14T05:52:51.354Z,5.50
2022-08-14T05:55:21.933Z,7.57
2022-08-14T05:57:53.896Z,7.87
2022-08-14T06:00:29.250Z,7.10
2022-08-14T06:03:00.879Z,6.77
2022-08-14T06:05:39.859Z,5.20
2022-08-14T06:08:31.349Z,4.83
2022-08-14T06:11:07.424Z,5.30
2022-08-14T06:13:44.448Z,4.60
2022-08-14T06:16:17.536Z,4.70
2022-08-14T06:18:48.562Z,5.27
2022-08-14T06:21:22.517Z,4.50
2022-08-14T06:23:54.131Z,5.43
2022-08-14T06:26:22.721Z,5.27
2022-08-14T06:28:59.937Z,4.63
2022-08-14T06:31:31.697Z,4.60
2022-08-14T06:35:03.188Z,5.20
2022-08-14T06:36:50.102Z,5.20
2022-08-14T06:39:36.313Z,5.67
2022-08-14T06:42:06.712Z,4.83
2022-08-14T06:44:35.414Z,5.00
2022-08-14T06:47:05.633Z,4.73
2022-08-14T06:49:44.108Z,4.63
2022-08-14T06:52:16.613Z,4.45
2022-08-14T06:54:45.820Z,4.43
2022-08-14T06:57:14.549Z,4.60
2022-08-14T06:59:43.576Z,4.28
2022-08-14T07:02:29.969Z,4.15
2022-08-14T07:05:21.085Z,4.85
2022-08-14T07:07:53.318Z,4.65
2022-08-14T07:10:24.930Z,4.65
2022-08-14T07:13:03.638Z,4.30
2022-08-14T07:15:42.124Z,4.70
2022-08-14T07:18:12.128Z,4.28
2022-08-14T07:20:44.139Z,4.35
2022-08-14T07:23:21.050Z,4.35
2022-08-14T07:25:51.647Z,4.47
2022-08-14T07:28:23.610Z,5.43
2022-08-14T07:30:52.697Z,4.90
2022-08-14T07:33:28.983Z,5.05
2022-08-14T07:36:00.071Z,4.78
2022-08-14T07:38:35.753Z,4.40
2022-08-14T07:41:11.932Z,4.88
2022-08-14T07:43:52.956Z,4.30
2022-08-14T07:46:28.388Z,4.72
2022-08-14T07:48:58.125Z,4.60
2022-08-14T07:51:36.660Z,4.55
2022-08-14T07:54:11.366Z,4.78
2022-08-14T07:56:47.487Z,4.95
2022-08-14T07:59:41.258Z,4.93
2022-08-14T08:02:19.079Z,5.05
2022-08-14T08:04:50.507Z,4.70
2022-08-14T08:07:23.605Z,5.03
2022-08-14T08:09:57.238Z,5.07
2022-08-14T08:12:30.239Z,5.20
2022-08-14T08:15:05.642Z,4.90
2022-08-14T08:17:53.216Z,9.32
2022-08-14T08:20:27.413Z,10.77
2022-08-14T08:23:05.868Z,5.63
2022-08-14T08:25:39.827Z,4.85
2022-08-14T08:28:25.029Z,4.88
2022-08-14T08:30:56.505Z,5.18
2022-08-14T08:33:32.359Z,5.57
2022-08-14T08:36:12.434Z,4.80
2022-08-14T08:39:14.856Z,6.03
2022-08-14T08:41:43.277Z,7.30
2022-08-14T08:44:17.397Z,7.00
2022-08-14T08:47:05.424Z,5.30
2022-08-14T08:49:43.334Z,8.48
2022-08-14T08:52:25.456Z,5.38
2022-08-14T08:55:00.997Z,5.70
2022-08-14T08:57:37.936Z,6.30
2022-08-14T09:00:24.963Z,4.97
2022-08-14T09:02:59.285Z,5.78
2022-08-14T09:05:28.857Z,5.43
2022-08-14T09:08:26.575Z,5.20
2022-08-14T09:11:00.880Z,8.10
2022-08-14T09:13:33.202Z,11.57
2022-08-14T09:16:18.660Z,5.25
2022-08-14T09:18:48.407Z,5.38
2022-08-14T09:21:18.323Z,5.65
2022-08-14T09:24:26.590Z,12.10
2022-08-14T09:26:36.341Z,5.53
2022-08-14T09:29:09.770Z,5.15
2022-08-14T09:31:42.885Z,5.03
2022-08-14T09:34:29.088Z,4.68
2022-08-14T09:37:20.611Z,5.00
2022-08-14T09:39:58.800Z,7.35
2022-08-14T09:42:54.391Z,5.10
2022-08-14T09:45:40.345Z,8.98
2022-08-14T09:48:27.474Z,10.13
2022-08-14T09:54:18.101Z,5.55
2022-08-14T09:56:43.928Z,6.88
2022-08-14T09:59:15.387Z,5.63
2022-08-14T10:01:52.651Z,8.18
2022-08-14T10:04:33.648Z,10.35
2022-08-14T10:07:05.445Z,5.60
2022-08-14T10:09:35.088Z,8.07
2022-08-14T10:12:05.035Z,5.63
2022-08-14T10:14:37.079Z,5.70
2022-08-14T10:17:08.344Z,11.13
2022-08-14T10:19:48.057Z,5.75
2022-08-14T10:23:12.613Z,5.40
2022-08-14T10:25:14.199Z,5.35
2022-08-14T10:27:50.124Z,5.15
2022-08-14T10:30:28.788Z,7.22
2022-08-14T10:33:02.778Z,7.70
2022-08-14T10:35:41.789Z,15.45
2022-08-14T10:38:28.182Z,5.57
2022-08-14T10:40:59.470Z,5.10
2022-08-14T10:43:31.835Z,9.90
2022-08-14T10:46:22.083Z,6.40
2022-08-14T10:49:04.488Z,4.70
2022-08-14T10:51:39.581Z,6.10
2022-08-14T10:54:17.131Z,7.70
2022-08-14T10:57:13.202Z,6.00
2022-08-14T10:59:48.264Z,6.30
2022-08-14T11:02:44.745Z,4.90
2022-08-14T11:05:20.760Z,5.10
2022-08-14T11:07:59.735Z,5.43
2022-08-14T11:10:43.133Z,5.43
2022-08-14T11:13:12.214Z,5.50
2022-08-14T11:15:41.039Z,6.07
2022-08-14T11:18:12.008Z,5.22
2022-08-14T11:20:54.212Z,5.47
2022-08-14T11:23:38.649Z,5.60
2022-08-14T11:26:10.213Z,5.38
2022-08-14T11:28:47.150Z,5.57
2022-08-14T11:31:20.069Z,5.18
2022-08-14T11:33:51.309Z,5.30
2022-08-14T11:36:57.223Z,5.47
2022-08-14T11:39:33.651Z,5.25
2022-08-14T11:42:55.654Z,5.57
2022-08-14T11:45:00.342Z,5.25
2022-08-14T11:47:35.266Z,5.72
2022-08-14T11:50:33.383Z,5.40
2022-08-14T11:53:07.117Z,5.72
2022-08-14T11:55:39.138Z,5.10
2022-08-14T11:58:10.389Z,5.38
2022-08-14T12:00:48.663Z,5.18
2022-08-14T12:03:26.927Z,5.32
2022-08-14T12:06:09.548Z,5.45
2022-08-14T12:08:59.844Z,5.90
2022-08-14T12:11:44.288Z,4.90
2022-08-14T12:14:30.066Z,5.85
2022-08-14T12:17:12.000Z,5.20
2022-08-14T12:19:51.113Z,5.22
2022-08-14T12:22:35.352Z,6.63
2022-08-14T12:25:10.932Z,6.20
2022-08-14T12:27:52.744Z,5.07
2022-08-14T12:30:38.161Z,5.45
2022-08-14T12:33:30.544Z,5.32
2022-08-14T12:36:05.909Z,5.40
2022-08-14T12:38:38.238Z,5.10
2022-08-14T12:41:20.257Z,5.28
2022-08-14T12:43:53.768Z,5.50
2022-08-14T12:46:29.142Z,5.63
2022-08-14T12:49:00.088Z,4.90
2022-08-14T12:51:31.827Z,5.10
2022-08-14T12:54:01.470Z,5.78
2022-08-14T12:56:33.080Z,5.32
2022-08-14T12:59:24.628Z,4.95
2022-08-14T13:02:08.713Z,5.03
2022-08-14T13:05:04.853Z,5.70
2022-08-14T13:07:51.139Z,5.20
2022-08-14T13:10:46.625Z,5.18
2022-08-14T13:13:24.090Z,4.88
2022-08-14T13:16:20.727Z,5.82
2022-08-14T13:19:20.011Z,5.38
2022-08-14T13:22:09.936Z,5.25
2022-08-14T13:24:47.153Z,5.07
2022-08-14T13:27:19.386Z,5.50
2022-08-14T13:30:04.085Z,6.53
2022-08-14T13:32:50.440Z,5.60
2022-08-14T13:35:20.865Z,4.97
2022-08-14T13:37:57.046Z,5.28
2022-08-14T13:40:33.548Z,5.38
2022-08-14T13:43:11.139Z,5.65
2022-08-14T13:46:00.417Z,5.05
2022-08-14T13:48:48.175Z,4.35
2022-08-14T13:51:46.441Z,4.40
2022-08-14T13:54:22.842Z,4.30
2022-08-14T13:59:49.535Z,5.50
2022-08-14T14:02:33.643Z,5.03
2022-08-14T14:05:15.283Z,5.35
2022-08-14T14:07:56.253Z,5.22
2022-08-14T14:10:36.520Z,5.25
2022-08-14T14:13:15.384Z,4.97
2022-08-14T14:15:58.559Z,5.18
2022-08-14T14:18:42.753Z,5.60
2022-08-14T14:21:24.720Z,6.75
2022-08-14T14:24:15.062Z,5.10
2022-08-14T14:26:57.640Z,5.32
2022-08-14T14:29:55.482Z,4.88
2022-08-14T14:33:01.940Z,5.50
2022-08-14T14:35:39.949Z,5.30
2022-08-14T14:38:18.231Z,5.30
2022-08-14T14:41:05.958Z,5.30
2022-08-14T14:43:38.930Z,5.10
2022-08-14T14:46:09.445Z,5.68
2022-08-14T14:48:44.189Z,5.30
2022-08-14T14:51:17.979Z,5.20
2022-08-14T14:53:48.264Z,5.43
2022-08-14T14:56:48.098Z,5.82
2022-08-14T14:59:05.659Z,5.00
2022-08-14T15:01:36.504Z,4.78
2022-08-14T15:04:08.075Z,4.85
2022-08-14T15:06:53.176Z,5.03
2022-08-14T15:09:23.715Z,5.45
2022-08-14T15:11:52.753Z,6.07
2022-08-14T15:14:56.259Z,5.50
2022-08-14T15:17:10.635Z,5.18
2022-08-14T15:19:39.629Z,5.53
2022-08-14T15:22:10.556Z,4.88
2022-08-14T15:24:39.934Z,5.15
2022-08-14T15:27:09.363Z,4.82
2022-08-14T15:29:43.147Z,4.93
2022-08-14T15:32:11.983Z,5.20
2022-08-14T15:34:51.520Z,5.03
2022-08-14T15:37:23.788Z,4.97
2022-08-14T15:39:53.042Z,4.70
2022-08-14T15:42:23.130Z,4.88
2022-08-14T15:44:56.843Z,4.63
2022-08-14T15:47:28.907Z,4.60
2022-08-14T15:50:08.917Z,4.95
2022-08-14T15:52:48.372Z,5.00
2022-08-14T15:55:21.119Z,5.30
2022-08-14T15:58:03.120Z,5.82
2022-08-14T16:00:56.469Z,5.15
2022-08-14T16:03:35.313Z,5.53
2022-08-14T16:06:15.690Z,5.13
2022-08-14T16:09:03.594Z,5.03
2022-08-14T16:11:50.667Z,4.95
2022-08-14T16:14:45.501Z,6.28
2022-08-14T16:17:18.220Z,5.00
2022-08-14T16:19:55.084Z,5.18
2022-08-14T16:23:10.924Z,6.03
2022-08-14T16:25:40.869Z,4.93
2022-08-14T16:28:26.966Z,5.22
2022-08-14T16:31:04.050Z,5.00
2022-08-14T16:33:59.677Z,5.25
2022-08-14T16:36:38.865Z,6.05
2022-08-14T16:39:33.505Z,5.68
2022-08-14T16:42:39.422Z,6.32
2022-08-14T16:45:05.115Z,5.63
2022-08-14T16:47:38.083Z,6.63
2022-08-14T16:50:12.622Z,20.30
2022-08-14T16:52:55.696Z,21.55
2022-08-14T16:55:29.945Z,10.35
2022-08-14T16:58:09.363Z,7.15
2022-08-14T17:04:01.918Z,5.38
2022-08-14T17:07:00.317Z,5.20
2022-08-14T17:09:44.005Z,6.05
2022-08-14T17:12:28.340Z,6.28
2022-08-14T17:15:19.641Z,23.13
2022-08-14T17:17:58.032Z,19.85
2022-08-14T17:21:00.277Z,11.95
2022-08-14T17:23:39.977Z,10.77
2022-08-14T17:26:19.371Z,16.30
2022-08-14T17:29:12.055Z,13.13
2022-08-14T17:31:58.974Z,9.52
2022-08-14T17:34:49.887Z,9.77
2022-08-14T17:37:34.205Z,9.07
2022-08-14T17:40:16.700Z,7.07
2022-08-14T17:43:00.928Z,7.53
2022-08-14T17:45:47.902Z,6.40
2022-08-14T17:48:39.810Z,6.95
2022-08-14T17:51:38.075Z,7.13
2022-08-14T17:54:36.530Z,6.43
2022-08-14T17:57:16.471Z,6.70
2022-08-14T17:59:54.002Z,7.05
2022-08-14T18:02:30.969Z,6.75
2022-08-14T18:05:03.484Z,17.55
2022-08-14T18:07:59.970Z,15.43
2022-08-14T18:10:55.446Z,8.00
2022-08-14T18:13:51.371Z,8.82
2022-08-14T18:16:20.135Z,10.57
2022-08-14T18:18:51.803Z,24.00
2022-08-14T18:21:40.316Z,23.67
2022-08-14T18:24:27.865Z,19.35
2022-08-14T18:27:02.205Z,9.30
2022-08-14T18:29:32.202Z,7.40
2022-08-14T18:32:01.563Z,7.15
2022-08-14T18:34:38.063Z,6.75
2022-08-14T18:37:22.199Z,7.45
2022-08-14T18:40:02.399Z,7.10
2022-08-14T18:42:45.479Z,7.78
2022-08-14T18:45:19.014Z,9.15
2022-08-14T18:48:28.697Z,10.13
2022-08-14T18:51:44.866Z,9.00
2022-08-14T18:54:29.800Z,7.13
2022-08-14T18:57:02.639Z,12.35
2022-08-14T18:59:35.634Z,10.55
2022-08-14T19:02:42.448Z,11.00
2022-08-14T19:05:11.757Z,10.30
2022-08-14T19:07:40.973Z,8.13
2022-08-14T19:10:16.989Z,8.35
2022-08-14T19:13:13.474Z,9.20
2022-08-14T19:16:06.055Z,13.33
2022-08-14T19:18:38.295Z,21.67
2022-08-14T19:21:13.453Z,27.40
2022-08-14T19:23:44.733Z,25.30
2022-08-14T19:26:35.744Z,19.47
2022-08-14T19:29:23.491Z,13.07
2022-08-14T19:31:55.719Z,15.87
2022-08-14T19:34:48.027Z,17.30
2022-08-14T19:37:47.439Z,15.77
2022-08-14T19:40:31.547Z,15.97
2022-08-14T19:43:08.915Z,9.23
2022-08-14T19:45:38.849Z,9.80
2022-08-14T19:48:12.520Z,13.60
2022-08-14T19:50:44.377Z,14.90
2022-08-14T19:53:17.146Z,18.87
2022-08-14T19:55:59.334Z,13.47
2022-08-14T19:58:54.911Z,9.20
2022-08-14T20:01:37.670Z,15.13
2022-08-14T20:04:22.824Z,15.40
2022-08-14T20:07:04.267Z,16.73
2022-08-14T20:11:04.707Z,13.40
2022-08-14T20:12:36.442Z,9.53
2022-08-14T20:15:21.278Z,7.13
2022-08-14T20:17:52.710Z,8.00
2022-08-14T20:20:32.449Z,9.63
2022-08-14T20:23:11.548Z,8.20
2022-08-14T20:25:45.238Z,7.40
2022-08-14T20:28:32.467Z,8.63
2022-08-14T20:31:17.782Z,8.60
2022-08-14T20:34:24.445Z,9.97
2022-08-14T20:37:04.694Z,10.87
2022-08-14T20:39:45.248Z,10.23
2022-08-14T20:42:43.594Z,9.30
2022-08-14T20:45:19.770Z,7.50
2022-08-14T20:47:58.485Z,7.10
2022-08-14T20:50:31.933Z,6.67
2022-08-14T20:53:06.030Z,8.13
2022-08-14T20:55:41.780Z,7.43
2022-08-14T20:58:42.069Z,7.30
2022-08-14T21:01:33.808Z,6.70
2022-08-14T21:04:11.940Z,7.03
2022-08-14T21:07:22.695Z,7.10
2022-08-14T21:10:04.552Z,8.47
2022-08-14T21:12:34.035Z,8.30
2022-08-14T21:15:11.279Z,7.57
2022-08-14T21:17:44.059Z,8.10
2022-08-14T21:20:25.316Z,7.50
2022-08-14T21:22:56.559Z,7.07
2022-08-14T21:25:26.018Z,7.40
2022-08-14T21:28:02.759Z,7.70
2022-08-14T21:30:51.201Z,6.90
2022-08-14T21:33:22.692Z,7.10
2022-08-14T21:35:54.950Z,6.87
2022-08-14T21:38:34.198Z,7.30
2022-08-14T21:41:42.601Z,6.43
2022-08-14T21:44:18.227Z,7.37
2022-08-14T21:46:53.993Z,7.10
2022-08-14T21:49:38.395Z,6.80
2022-08-14T21:52:51.583Z,7.30
2022-08-14T21:55:00.620Z,7.13
2022-08-14T21:57:56.044Z,6.73
2022-08-14T22:00:35.131Z,7.47
2022-08-14T22:03:08.947Z,7.30
2022-08-14T22:05:40.007Z,8.07
2022-08-14T22:08:12.457Z,7.30
2022-08-14T22:10:44.878Z,8.10
2022-08-14T22:13:16.807Z,6.57
2022-08-14T22:15:50.191Z,7.00
2022-08-14T22:18:21.859Z,7.07
2022-08-14T22:20:56.564Z,8.33
2022-08-14T22:23:26.473Z,7.40
2022-08-14T22:25:56.218Z,7.20
2022-08-14T22:28:32.692Z,7.00
2022-08-14T22:31:10.137Z,7.60
2022-08-14T22:33:42.899Z,7.17
2022-08-14T22:36:34.291Z,7.00
2022-08-14T22:39:11.335Z,7.30
2022-08-14T22:41:42.449Z,6.90
2022-08-14T22:44:14.375Z,6.93
2022-08-14T22:46:45.335Z,7.23
2022-08-14T22:49:15.675Z,6.63
2022-08-14T22:51:56.799Z,7.27
2022-08-14T22:54:51.952Z,7.60
2022-08-14T22:57:15.425Z,7.17
2022-08-14T22:59:44.548Z,6.77
2022-08-14T23:02:15.245Z,7.40
2022-08-14T23:04:54.128Z,7.57
2022-08-14T23:07:25.191Z,6.63
2022-08-14T23:10:33.099Z,8.07
2022-08-14T23:13:03.672Z,7.80
2022-08-14T23:15:33.536Z,6.83
2022-08-14T23:18:03.390Z,6.73
2022-08-14T23:20:36.386Z,6.67
2022-08-14T23:23:12.796Z,6.70
2022-08-14T23:26:00.366Z,6.50
2022-08-14T23:28:56.505Z,6.90
2022-08-14T23:31:35.737Z,7.87
2022-08-14T23:34:07.186Z,7.10
2022-08-14T23:36:53.642Z,7.53
2022-08-14T23:39:29.752Z,6.80
2022-08-14T23:42:02.495Z,6.90
2022-08-14T23:44:35.139Z,7.70
2022-08-14T23:47:10.910Z,6.63
2022-08-14T23:50:00.127Z,7.07
2022-08-14T23:53:06.446Z,8.23
2022-08-14T23:55:19.811Z,6.77
2022-08-14T23:57:58.116Z,7.73
